createdAt,value
2019-04-14T00:00:44.829Z,14.03
2019-04-14T00:03:21.589Z,15.03
2019-04-14T00:05:53.928Z,14.83
2019-04-14T00:08:24.056Z,12.37
2019-04-14T00:10:53.115Z,11.93
2019-04-14T00:13:22.231Z,14.15
2019-04-14T00:15:52.330Z,14.18
2019-04-14T00:18:22.925Z,14.05
2019-04-14T00:20:53.150Z,12.87
2019-04-14T00:23:23.667Z,15.45
2019-04-14T00:25:52.706Z,14.63
2019-04-14T00:28:22.594Z,13.83
2019-04-14T00:30:53.325Z,12.67
2019-04-14T00:33:23.716Z,13.68
2019-04-14T00:36:02.248Z,13.10
2019-04-14T00:38:37.082Z,13.00
2019-04-14T00:41:13.725Z,13.80
2019-04-14T00:43:48.538Z,13.78
2019-04-14T00:46:25.430Z,13.60
2019-04-14T00:48:54.409Z,13.98
2019-04-14T00:51:24.402Z,16.40
2019-04-14T00:53:53.628Z,14.93
2019-04-14T00:56:23.678Z,14.60
2019-04-14T00:58:53.956Z,13.15
2019-04-14T01:01:24.268Z,12.73
2019-04-14T01:03:53.365Z,14.75
2019-04-14T01:06:22.974Z,15.18
2019-04-14T01:08:53.245Z,14.28
2019-04-14T01:11:22.595Z,13.80
2019-04-14T01:13:51.479Z,14.95
2019-04-14T01:16:23.362Z,14.10
2019-04-14T01:18:51.569Z,12.30
2019-04-14T01:21:21.701Z,14.20
2019-04-14T01:23:50.821Z,13.13
2019-04-14T01:26:20.356Z,15.20
2019-04-14T01:28:50.407Z,12.23
2019-04-14T01:31:20.547Z,15.13
2019-04-14T01:33:49.633Z,14.80
2019-04-14T01:36:19.190Z,14.00
2019-04-14T01:38:49.170Z,15.13
2019-04-14T01:41:19.248Z,14.93
2019-04-14T01:43:49.591Z,13.30
2019-04-14T01:46:24.668Z,14.10
2019-04-14T01:48:50.094Z,14.38
2019-04-14T01:51:30.909Z,14.13
2019-04-14T01:54:19.329Z,16.70
2019-04-14T01:57:11.014Z,15.15
2019-04-14T01:59:41.264Z,17.40
2019-04-14T02:02:11.978Z,17.02
2019-04-14T02:04:42.176Z,14.60
2019-04-14T02:07:12.100Z,16.20
2019-04-14T02:09:42.276Z,14.18
2019-04-14T02:12:12.748Z,15.68
2019-04-14T02:14:42.945Z,15.28
2019-04-14T02:17:13.133Z,14.03
2019-04-14T02:19:43.770Z,14.70
2019-04-14T02:22:13.825Z,14.63
2019-04-14T02:24:43.892Z,16.23
2019-04-14T02:27:14.232Z,15.63
2019-04-14T02:29:43.571Z,16.20
2019-04-14T02:35:16.701Z,15.50
2019-04-14T02:37:45.151Z,15.90
2019-04-14T02:42:44.002Z,16.67
2019-04-14T02:45:19.304Z,16.57
2019-04-14T02:48:03.236Z,15.30
2019-04-14T02:50:17.841Z,15.83
2019-04-14T02:53:01.779Z,17.87
2019-04-14T02:55:10.697Z,14.35
2019-04-14T02:57:47.877Z,16.03
2019-04-14T03:00:24.129Z,17.25
2019-04-14T03:02:44.533Z,15.37
2019-04-14T03:05:16.362Z,17.15
2019-04-14T03:13:03.587Z,16.80
2019-04-14T03:18:16.383Z,15.63
2019-04-14T03:20:48.209Z,16.00
2019-04-14T03:23:48.917Z,17.20
2019-04-14T03:26:04.894Z,16.97
2019-04-14T03:34:08.236Z,17.00
2019-04-14T03:38:45.150Z,17.00
2019-04-14T03:41:17.620Z,16.33
2019-04-14T03:43:54.349Z,16.62
2019-04-14T03:46:20.711Z,16.85
2019-04-14T03:51:18.875Z,16.13
2019-04-14T03:53:45.796Z,17.00
2019-04-14T03:56:29.149Z,17.67
2019-04-14T03:58:59.716Z,15.85
2019-04-14T04:01:30.130Z,13.77
2019-04-14T04:03:59.298Z,18.35
2019-04-14T04:06:29.256Z,14.20
2019-04-14T04:08:59.567Z,16.02
2019-04-14T04:11:28.629Z,18.90
2019-04-14T04:13:58.502Z,21.57
2019-04-14T04:16:44.062Z,16.55
2019-04-14T04:19:44.792Z,16.75
2019-04-14T04:22:48.149Z,21.63
2019-04-14T04:25:44.431Z,17.02
2019-04-14T04:28:32.053Z,13.25
2019-04-14T04:31:15.650Z,15.10
2019-04-14T04:34:07.579Z,15.98
2019-04-14T04:37:01.824Z,16.43
2019-04-14T04:39:37.982Z,17.45
2019-04-14T04:42:07.080Z,18.53
2019-04-14T04:44:36.142Z,18.20
2019-04-14T04:47:05.720Z,15.60
2019-04-14T04:49:35.866Z,15.65
2019-04-14T04:52:06.137Z,16.23
2019-04-14T04:54:36.415Z,17.07
2019-04-14T04:57:06.685Z,17.73
2019-04-14T04:59:36.705Z,22.02
2019-04-14T05:02:07.032Z,17.40
2019-04-14T05:04:37.322Z,17.00
2019-04-14T05:07:07.638Z,15.13
2019-04-14T05:09:56.179Z,17.80
2019-04-14T05:12:36.890Z,17.57
2019-04-14T05:15:19.089Z,15.43
2019-04-14T05:17:48.003Z,17.15
2019-04-14T05:20:18.079Z,17.37
2019-04-14T05:22:48.381Z,15.95
2019-04-14T05:25:18.882Z,15.70
2019-04-14T05:27:49.379Z,16.23
2019-04-14T05:30:19.693Z,15.63
2019-04-14T05:32:50.118Z,15.78
2019-04-14T05:35:20.355Z,16.65
2019-04-14T05:37:50.534Z,16.17
2019-04-14T05:40:20.961Z,15.03
2019-04-14T05:42:50.094Z,15.58
2019-04-14T05:45:19.847Z,15.25
2019-04-14T05:47:50.104Z,17.98
2019-04-14T05:50:20.298Z,16.12
2019-04-14T05:52:49.386Z,14.75
2019-04-14T05:55:18.342Z,16.20
2019-04-14T05:57:48.120Z,17.17
2019-04-14T06:00:19.036Z,15.83
2019-04-14T06:02:48.495Z,17.75
2019-04-14T06:05:18.870Z,14.90
2019-04-14T06:07:47.859Z,14.20
2019-04-14T06:10:17.167Z,15.65
2019-04-14T06:12:46.037Z,16.77
2019-04-14T06:15:15.265Z,16.65
2019-04-14T06:17:44.283Z,16.62
2019-04-14T06:20:13.307Z,15.50
2019-04-14T06:22:43.187Z,16.05
2019-04-14T06:25:12.193Z,15.70
2019-04-14T06:27:41.461Z,15.08
2019-04-14T06:30:31.594Z,15.13
2019-04-14T06:33:03.784Z,15.25
2019-04-14T06:35:41.275Z,17.30
2019-04-14T06:38:13.431Z,15.30
2019-04-14T06:40:47.499Z,17.80
2019-04-14T06:43:16.469Z,15.05
2019-04-14T06:45:45.286Z,15.10
2019-04-14T06:48:14.231Z,16.15
2019-04-14T06:50:46.245Z,14.43
2019-04-14T06:53:14.082Z,13.08
2019-04-14T06:55:43.070Z,14.17
2019-04-14T06:58:11.868Z,13.45
2019-04-14T07:00:40.731Z,15.30
2019-04-14T07:03:09.761Z,13.05
2019-04-14T07:05:38.716Z,14.23
2019-04-14T07:08:07.874Z,12.75
2019-04-14T07:10:36.862Z,14.83
2019-04-14T07:13:05.782Z,12.80
2019-04-14T07:15:34.752Z,16.73
2019-04-14T07:18:03.918Z,15.25
2019-04-14T07:20:32.821Z,12.43
2019-04-14T07:23:01.697Z,12.78
2019-04-14T07:25:30.706Z,13.27
2019-04-14T07:27:59.537Z,13.48
2019-04-14T07:30:51.999Z,13.00
2019-04-14T07:33:42.842Z,12.93
2019-04-14T07:36:22.527Z,11.80
2019-04-14T07:39:19.383Z,12.90
2019-04-14T07:41:54.114Z,14.93
2019-04-14T07:44:51.571Z,11.50
2019-04-14T07:47:27.802Z,12.88
2019-04-14T07:50:19.482Z,13.32
2019-04-14T07:53:06.231Z,11.80
2019-04-14T07:55:45.295Z,11.07
2019-04-14T07:58:24.113Z,13.32
2019-04-14T08:01:07.051Z,11.70
2019-04-14T08:03:56.306Z,12.53
2019-04-14T08:06:25.270Z,12.10
2019-04-14T08:08:54.127Z,10.55
2019-04-14T08:11:23.162Z,14.27
2019-04-14T08:13:52.215Z,13.40
2019-04-14T08:16:21.224Z,11.63
2019-04-14T08:18:50.484Z,12.55
2019-04-14T08:21:19.536Z,12.18
2019-04-14T08:23:48.449Z,11.90
2019-04-14T08:26:17.355Z,13.50
2019-04-14T08:28:46.402Z,11.80
2019-04-14T08:31:15.425Z,11.47
2019-04-14T08:33:44.234Z,12.07
2019-04-14T08:36:13.262Z,12.50
2019-04-14T08:38:42.357Z,9.83
2019-04-14T08:41:11.255Z,10.33
2019-04-14T08:43:48.954Z,12.07
2019-04-14T08:46:24.644Z,11.37
2019-04-14T08:49:30.708Z,13.58
2019-04-14T08:52:14.338Z,11.47
2019-04-14T08:55:17.824Z,8.85
2019-04-14T08:58:11.947Z,11.63
2019-04-14T09:00:53.635Z,10.30
2019-04-14T09:03:40.409Z,12.82
2019-04-14T09:06:16.214Z,11.00
2019-04-14T09:08:48.342Z,10.48
2019-04-14T09:11:18.682Z,8.23
2019-04-14T09:13:47.623Z,11.95
2019-04-14T09:16:16.586Z,11.23
2019-04-14T09:18:45.529Z,10.70
2019-04-14T09:21:14.565Z,12.57
2019-04-14T09:23:43.507Z,10.57
2019-04-14T09:26:12.783Z,10.57
2019-04-14T09:28:41.832Z,11.37
2019-04-14T09:31:10.855Z,10.07
2019-04-14T09:33:39.708Z,10.07
2019-04-14T09:36:09.184Z,8.93
2019-04-14T09:38:38.255Z,8.83
2019-04-14T09:41:07.182Z,9.77
2019-04-14T09:43:36.207Z,11.30
2019-04-14T09:46:05.070Z,9.83
2019-04-14T09:48:34.019Z,9.40
2019-04-14T09:51:05.148Z,8.90
2019-04-14T09:53:33.984Z,9.53
2019-04-14T09:56:03.111Z,9.90
2019-04-14T09:58:32.157Z,9.87
2019-04-14T10:01:01.855Z,7.93
2019-04-14T10:03:30.922Z,9.63
2019-04-14T10:05:59.907Z,9.13
2019-04-14T10:08:28.914Z,10.70
2019-04-14T10:10:58.202Z,8.90
2019-04-14T10:13:27.028Z,8.70
2019-04-14T10:15:56.439Z,10.37
2019-04-14T10:18:25.719Z,10.80
2019-04-14T10:20:54.887Z,9.47
2019-04-14T10:23:23.822Z,8.70
2019-04-14T10:25:52.871Z,8.47
2019-04-14T10:28:21.878Z,8.67
2019-04-14T10:30:50.800Z,8.27
2019-04-14T10:33:20.010Z,10.73
2019-04-14T10:35:49.335Z,9.70
2019-04-14T10:38:18.561Z,7.83
2019-04-14T10:40:47.747Z,8.53
2019-04-14T10:43:16.806Z,9.07
2019-04-14T10:45:45.818Z,8.37
2019-04-14T10:48:14.933Z,8.27
2019-04-14T10:50:44.507Z,11.30
2019-04-14T10:53:13.859Z,8.37
2019-04-14T10:55:42.779Z,7.77
2019-04-14T10:58:12.002Z,6.83
2019-04-14T11:00:40.994Z,7.30
2019-04-14T11:03:10.199Z,7.93
2019-04-14T11:05:53.385Z,9.63
2019-04-14T11:08:22.680Z,8.90
2019-04-14T11:10:51.843Z,7.13
2019-04-14T11:13:20.770Z,7.90
2019-04-14T11:15:49.811Z,9.47
2019-04-14T11:18:18.801Z,8.37
2019-04-14T11:20:47.870Z,8.03
2019-04-14T11:23:17.024Z,6.90
2019-04-14T11:25:45.874Z,8.00
2019-04-14T11:28:15.124Z,7.97
2019-04-14T11:30:44.521Z,8.80
2019-04-14T11:33:38.491Z,8.30
2019-04-14T11:36:25.590Z,7.30
2019-04-14T11:39:19.807Z,7.30
2019-04-14T11:41:48.635Z,7.63
2019-04-14T11:44:17.590Z,8.70
2019-04-14T11:46:46.839Z,8.40
2019-04-14T11:49:15.823Z,7.77
2019-04-14T11:51:54.640Z,8.13
2019-04-14T11:54:16.043Z,7.03
2019-04-14T11:56:45.330Z,8.23
2019-04-14T11:59:14.378Z,6.53
2019-04-14T12:01:52.111Z,6.90
2019-04-14T12:04:43.151Z,9.67
2019-04-14T12:07:33.674Z,6.70
2019-04-14T12:10:05.624Z,7.37
2019-04-14T12:12:34.614Z,6.90
2019-04-14T12:15:03.838Z,8.43
2019-04-14T12:17:32.878Z,6.53
2019-04-14T12:20:06.171Z,7.37
2019-04-14T12:22:35.142Z,8.10
2019-04-14T12:25:04.351Z,7.90
2019-04-14T12:27:33.290Z,6.40
2019-04-14T12:30:03.452Z,8.03
2019-04-14T12:32:32.475Z,7.80
2019-04-14T12:35:01.416Z,6.97
2019-04-14T12:37:30.806Z,7.13
2019-04-14T12:39:59.730Z,6.90
2019-04-14T12:42:47.026Z,7.53
2019-04-14T12:45:47.373Z,6.90
2019-04-14T12:48:53.536Z,6.53
2019-04-14T12:51:32.959Z,6.60
2019-04-14T12:54:01.894Z,6.90
2019-04-14T12:56:30.906Z,7.43
2019-04-14T12:59:18.897Z,7.60
2019-04-14T13:01:58.097Z,6.90
2019-04-14T13:04:27.060Z,8.63
2019-04-14T13:06:55.951Z,6.23
2019-04-14T13:09:25.183Z,6.50
2019-04-14T13:11:54.316Z,7.63
2019-04-14T13:14:23.715Z,7.10
2019-04-14T13:16:52.652Z,8.13
2019-04-14T13:19:22.224Z,7.43
2019-04-14T13:21:51.190Z,7.10
2019-04-14T13:24:20.151Z,6.50
2019-04-14T13:26:49.134Z,7.07
2019-04-14T13:29:18.155Z,8.37
2019-04-14T13:31:47.576Z,7.83
2019-04-14T13:34:16.543Z,6.33
2019-04-14T13:36:45.622Z,7.03
2019-04-14T13:39:14.580Z,7.03
2019-04-14T13:41:43.634Z,6.93
2019-04-14T13:44:13.201Z,8.10
2019-04-14T13:46:42.290Z,6.83
2019-04-14T13:49:11.098Z,7.23
2019-04-14T13:51:40.133Z,8.83
2019-04-14T13:54:09.070Z,7.10
2019-04-14T13:56:38.095Z,7.33
2019-04-14T13:59:07.062Z,7.00
2019-04-14T14:01:36.007Z,7.87
2019-04-14T14:04:05.114Z,8.37
2019-04-14T14:06:34.095Z,8.50
2019-04-14T14:09:03.388Z,8.33
2019-04-14T14:11:37.902Z,8.83
2019-04-14T14:14:13.457Z,7.97
2019-04-14T14:16:57.635Z,8.23
2019-04-14T14:19:36.814Z,7.37
2019-04-14T14:22:15.618Z,5.93
2019-04-14T14:25:12.814Z,8.13
2019-04-14T14:27:42.114Z,7.87
2019-04-14T14:30:13.095Z,9.80
2019-04-14T14:32:42.259Z,7.80
2019-04-14T14:35:11.569Z,6.73
2019-04-14T14:37:40.535Z,7.57
2019-04-14T14:40:09.968Z,7.60
2019-04-14T14:42:38.947Z,7.90
2019-04-14T14:45:19.634Z,8.13
2019-04-14T14:47:55.891Z,8.60
2019-04-14T14:50:43.815Z,8.33
2019-04-14T14:53:12.719Z,7.93
2019-04-14T14:55:41.773Z,9.33
2019-04-14T14:58:10.596Z,8.60
2019-04-14T15:00:39.578Z,7.50
2019-04-14T15:03:08.774Z,8.37
2019-04-14T15:05:38.450Z,8.70
2019-04-14T15:08:07.359Z,9.30
2019-04-14T15:10:36.413Z,8.87
2019-04-14T15:13:05.458Z,8.20
2019-04-14T15:15:34.825Z,8.03
2019-04-14T15:18:03.875Z,8.40
2019-04-14T15:20:32.949Z,7.27
2019-04-14T15:23:02.395Z,9.03
2019-04-14T15:25:31.378Z,8.13
2019-04-14T15:28:00.210Z,8.80
2019-04-14T15:30:29.226Z,7.67
2019-04-14T15:32:58.118Z,8.97
2019-04-14T15:35:27.135Z,7.23
2019-04-14T15:37:56.109Z,9.87
2019-04-14T15:40:25.488Z,9.27
2019-04-14T15:42:54.472Z,8.40
2019-04-14T15:45:23.765Z,9.13
2019-04-14T15:47:52.839Z,8.57
2019-04-14T15:50:21.729Z,7.00
2019-04-14T15:52:50.758Z,9.20
2019-04-14T15:55:19.862Z,7.90
2019-04-14T15:57:58.130Z,8.17
2019-04-14T16:00:40.127Z,9.67
2019-04-14T16:03:23.415Z,7.53
2019-04-14T16:05:59.738Z,7.37
2019-04-14T16:08:32.343Z,9.37
2019-04-14T16:11:29.802Z,8.80
2019-04-14T16:14:15.754Z,7.63
2019-04-14T16:17:02.997Z,8.43
2019-04-14T16:19:35.648Z,9.13
2019-04-14T16:22:04.622Z,8.63
2019-04-14T16:24:33.777Z,9.27
2019-04-14T16:27:31.423Z,10.00
2019-04-14T16:30:10.088Z,11.43
2019-04-14T16:32:57.843Z,7.30
2019-04-14T16:35:28.514Z,8.03
2019-04-14T16:37:57.486Z,8.43
2019-04-14T16:40:26.475Z,8.13
2019-04-14T16:42:55.447Z,8.43
2019-04-14T16:45:24.809Z,7.83
2019-04-14T16:47:53.866Z,8.87
2019-04-14T16:50:23.083Z,8.30
2019-04-14T16:52:59.517Z,8.30
2019-04-14T16:56:02.901Z,7.27
2019-04-14T16:59:00.324Z,7.12
2019-04-14T17:01:35.489Z,9.23
2019-04-14T17:04:04.550Z,7.23
2019-04-14T17:06:33.370Z,9.53
2019-04-14T17:09:02.494Z,7.37
2019-04-14T17:11:31.359Z,7.37
2019-04-14T17:14:05.474Z,7.28
2019-04-14T17:16:48.381Z,8.60
2019-04-14T17:19:28.402Z,8.60
2019-04-14T17:22:07.454Z,9.23
2019-04-14T17:24:56.007Z,8.43
2019-04-14T17:27:32.043Z,7.50
2019-04-14T17:30:20.390Z,8.40
2019-04-14T17:33:07.593Z,10.70
2019-04-14T17:35:50.841Z,8.03
2019-04-14T17:38:27.631Z,7.33
2019-04-14T17:41:18.051Z,8.30
2019-04-14T17:43:51.885Z,7.25
2019-04-14T17:46:38.418Z,6.97
2019-04-14T17:49:35.748Z,8.70
2019-04-14T17:52:22.576Z,8.13
2019-04-14T17:55:09.428Z,8.00
2019-04-14T17:57:56.348Z,8.28
2019-04-14T18:00:47.463Z,7.55
2019-04-14T18:03:41.554Z,7.85
2019-04-14T18:06:17.831Z,6.97
2019-04-14T18:09:08.955Z,7.35
2019-04-14T18:11:42.611Z,7.45
2019-04-14T18:14:31.135Z,7.85
2019-04-14T18:17:25.490Z,7.00
2019-04-14T18:20:01.980Z,7.08
2019-04-14T18:22:30.957Z,6.50
2019-04-14T18:24:59.912Z,9.28
2019-04-14T18:27:30.291Z,7.53
2019-04-14T18:30:17.710Z,7.35
2019-04-14T18:32:57.418Z,6.87
2019-04-14T18:35:34.253Z,7.95
2019-04-14T18:38:31.510Z,7.97
2019-04-14T18:41:09.919Z,6.58
2019-04-14T18:43:47.192Z,8.68
2019-04-14T18:46:35.197Z,9.57
2019-04-14T18:49:10.325Z,9.55
2019-04-14T18:51:55.041Z,9.43
2019-04-14T18:54:32.414Z,8.30
2019-04-14T18:57:26.215Z,8.08
2019-04-14T19:00:15.646Z,7.95
2019-04-14T19:02:44.454Z,7.15
2019-04-14T19:05:13.394Z,9.18
2019-04-14T19:07:42.824Z,7.15
2019-04-14T19:10:11.926Z,7.55
2019-04-14T19:12:52.586Z,6.78
2019-04-14T19:15:35.225Z,7.28
2019-04-14T19:18:29.459Z,7.15
2019-04-14T19:21:07.331Z,6.93
2019-04-14T19:23:36.475Z,7.10
2019-04-14T19:26:05.846Z,8.00
2019-04-14T19:28:34.807Z,8.48
2019-04-14T19:31:03.831Z,6.53
2019-04-14T19:33:32.711Z,8.73
2019-04-14T19:36:01.657Z,7.60
2019-04-14T19:38:30.587Z,8.20
2019-04-14T19:40:59.566Z,7.93
2019-04-14T19:43:28.780Z,7.47
2019-04-14T19:45:57.651Z,6.70
2019-04-14T19:48:26.567Z,7.90
2019-04-14T19:50:55.642Z,5.93
2019-04-14T19:53:24.666Z,6.60
2019-04-14T19:55:54.076Z,7.93
2019-04-14T19:58:23.030Z,6.53
2019-04-14T20:00:52.014Z,6.67
2019-04-14T20:03:21.114Z,6.72
2019-04-14T20:05:49.930Z,8.00
2019-04-14T20:08:18.874Z,6.05
2019-04-14T20:10:47.784Z,7.00
2019-04-14T20:13:16.801Z,6.12
2019-04-14T20:16:07.990Z,6.30
2019-04-14T20:18:55.969Z,6.75
2019-04-14T20:21:44.204Z,6.87
2019-04-14T20:24:24.595Z,6.65
2019-04-14T20:26:57.546Z,6.50
2019-04-14T20:29:29.614Z,5.60
2019-04-14T20:32:04.702Z,6.20
2019-04-14T20:34:33.895Z,6.03
2019-04-14T20:37:02.863Z,5.30
2019-04-14T20:39:32.465Z,5.17
2019-04-14T20:42:01.358Z,6.78
2019-04-14T20:44:30.702Z,5.28
2019-04-14T20:46:59.670Z,5.35
2019-04-14T20:49:28.592Z,7.20
2019-04-14T20:51:57.884Z,5.90
2019-04-14T20:54:26.718Z,4.67
2019-04-14T20:56:55.974Z,5.00
2019-04-14T20:59:24.809Z,5.53
2019-04-14T21:02:07.718Z,4.80
2019-04-14T21:04:48.110Z,4.67
2019-04-14T21:07:39.675Z,7.10
2019-04-14T21:10:39.761Z,4.50
2019-04-14T21:13:17.306Z,3.98
2019-04-14T21:15:49.621Z,5.00
2019-04-14T21:18:40.831Z,4.55
2019-04-14T21:21:29.258Z,3.47
2019-04-14T21:24:03.222Z,5.45
2019-04-14T21:26:50.099Z,3.90
2019-04-14T21:29:36.994Z,4.85
2019-04-14T21:32:18.134Z,3.93
2019-04-14T21:35:08.870Z,4.80
2019-04-14T21:37:56.838Z,4.50
2019-04-14T21:40:46.608Z,4.62
2019-04-14T21:43:15.700Z,4.40
2019-04-14T21:45:44.526Z,5.40
2019-04-14T21:48:13.441Z,4.20
2019-04-14T21:50:42.466Z,5.25
2019-04-14T21:53:11.367Z,4.70
2019-04-14T21:55:40.406Z,4.70
2019-04-14T21:58:18.266Z,4.12
2019-04-14T22:01:43.346Z,4.80
2019-04-14T22:04:46.741Z,4.58
2019-04-14T22:07:40.614Z,4.87
2019-04-14T22:10:29.014Z,4.92
2019-04-14T22:12:58.150Z,6.40
2019-04-14T22:15:27.254Z,4.70
2019-04-14T22:17:56.158Z,5.00
2019-04-14T22:20:24.999Z,4.72
2019-04-14T22:22:53.923Z,5.55
2019-04-14T22:25:22.752Z,4.95
2019-04-14T22:27:51.604Z,4.03
2019-04-14T22:30:20.598Z,4.87
2019-04-14T22:32:49.579Z,3.95
2019-04-14T22:35:18.435Z,4.20
2019-04-14T22:37:47.719Z,4.40
2019-04-14T22:40:16.851Z,4.30
2019-04-14T22:42:45.969Z,3.58
2019-04-14T22:45:15.161Z,4.22
2019-04-14T22:47:44.071Z,4.03
2019-04-14T22:50:13.147Z,3.55
2019-04-14T22:52:42.045Z,4.55
2019-04-14T22:55:11.190Z,3.27
2019-04-14T22:57:40.254Z,2.87
2019-04-14T23:00:11.807Z,2.90
2019-04-14T23:02:53.844Z,3.02
2019-04-14T23:05:46.305Z,3.30
2019-04-14T23:08:32.780Z,2.92
2019-04-14T23:11:09.773Z,3.30
2019-04-14T23:13:44.871Z,3.33
2019-04-14T23:16:22.771Z,3.43
2019-04-14T23:19:00.158Z,3.33
2019-04-14T23:21:35.319Z,2.93
2019-04-14T23:24:13.604Z,4.00
2019-04-14T23:26:52.223Z,3.23
2019-04-14T23:29:13.524Z,3.25
2019-04-14T23:31:42.590Z,2.97
2019-04-14T23:34:11.584Z,2.95
2019-04-14T23:36:40.567Z,3.53
2019-04-14T23:39:11.969Z,3.15
2019-04-14T23:41:40.974Z,2.70
2019-04-14T23:44:10.016Z,3.08
2019-04-14T23:46:39.142Z,2.83
2019-04-14T23:49:08.007Z,3.08
2019-04-14T23:51:37.128Z,2.47
2019-04-14T23:54:06.158Z,3.65
2019-04-14T23:56:35.219Z,3.00
2019-04-14T23:59:04.754Z,2.85
